sensor_id;sensor_type;location;lat;lon;timestamp;P1;durP1;ratioP1;P2;durP2;ratioP2
19434;SDS011;9853;50.848;4.108;2023-05-07T00:01:23;13.60;;;3.72;;
19434;SDS011;9853;50.848;4.108;2023-05-07T00:03:24;14.77;;;4.15;;
19434;SDS011;9853;50.848;4.108;2023-05-07T00:05:26;13.32;;;3.50;;
19434;SDS011;9853;50.848;4.108;2023-05-07T00:07:27;13.52;;;4.18;;
19434;SDS011;9853;50.848;4.108;2023-05-07T00:09:28;9.23;;;3.40;;
19434;SDS011;9853;50.848;4.108;2023-05-07T00:11:29;15.38;;;3.70;;
19434;SDS011;9853;50.848;4.108;2023-05-07T00:13:30;11.20;;;3.58;;
19434;SDS011;9853;50.848;4.108;2023-05-07T00:15:35;16.02;;;3.65;;
19434;SDS011;9853;50.848;4.108;2023-05-07T00:17:36;11.65;;;4.45;;
19434;SDS011;9853;50.848;4.108;2023-05-07T00:19:37;14.98;;;3.72;;
19434;SDS011;9853;50.848;4.108;2023-05-07T00:21:38;14.70;;;3.47;;
19434;SDS011;9853;50.848;4.108;2023-05-07T00:23:38;14.30;;;3.63;;
19434;SDS011;9853;50.848;4.108;2023-05-07T00:25:39;9.65;;;3.28;;
19434;SDS011;9853;50.848;4.108;2023-05-07T00:27:40;11.75;;;3.60;;
19434;SDS011;9853;50.848;4.108;2023-05-07T00:29:41;17.67;;;4.05;;
19434;SDS011;9853;50.848;4.108;2023-05-07T00:31:42;10.65;;;3.58;;
19434;SDS011;9853;50.848;4.108;2023-05-07T00:33:42;16.73;;;3.90;;
19434;SDS011;9853;50.848;4.108;2023-05-07T00:35:43;14.57;;;3.90;;
19434;SDS011;9853;50.848;4.108;2023-05-07T00:37:55;14.20;;;4.13;;
19434;SDS011;9853;50.848;4.108;2023-05-07T00:39:56;15.02;;;3.72;;
19434;SDS011;9853;50.848;4.108;2023-05-07T00:41:57;13.43;;;3.97;;
19434;SDS011;9853;50.848;4.108;2023-05-07T00:43:58;16.25;;;4.10;;
19434;SDS011;9853;50.848;4.108;2023-05-07T00:45:59;10.90;;;3.83;;
19434;SDS011;9853;50.848;4.108;2023-05-07T00:48:00;10.07;;;3.40;;
19434;SDS011;9853;50.848;4.108;2023-05-07T00:50:02;10.38;;;3.78;;
19434;SDS011;9853;50.848;4.108;2023-05-07T00:52:04;15.18;;;3.85;;
19434;SDS011;9853;50.848;4.108;2023-05-07T00:54:09;10.10;;;3.80;;
19434;SDS011;9853;50.848;4.108;2023-05-07T00:56:11;12.10;;;3.75;;
19434;SDS011;9853;50.848;4.108;2023-05-07T00:58:12;17.35;;;4.40;;
19434;SDS011;9853;50.848;4.108;2023-05-07T01:00:13;20.90;;;3.97;;
19434;SDS011;9853;50.848;4.108;2023-05-07T01:02:14;12.98;;;3.80;;
19434;SDS011;9853;50.848;4.108;2023-05-07T01:04:15;12.80;;;4.15;;
19434;SDS011;9853;50.848;4.108;2023-05-07T01:06:16;15.65;;;4.00;;
19434;SDS011;9853;50.848;4.108;2023-05-07T01:08:17;15.02;;;4.03;;
19434;SDS011;9853;50.848;4.108;2023-05-07T01:10:18;11.43;;;3.72;;
19434;SDS011;9853;50.848;4.108;2023-05-07T01:12:20;15.60;;;3.90;;
19434;SDS011;9853;50.848;4.108;2023-05-07T01:14:21;14.98;;;3.92;;
19434;SDS011;9853;50.848;4.108;2023-05-07T01:16:22;17.48;;;3.85;;
19434;SDS011;9853;50.848;4.108;2023-05-07T01:18:23;11.65;;;3.95;;
19434;SDS011;9853;50.848;4.108;2023-05-07T01:20:24;13.77;;;4.25;;
19434;SDS011;9853;50.848;4.108;2023-05-07T01:22:33;11.88;;;4.18;;
19434;SDS011;9853;50.848;4.108;2023-05-07T01:24:36;9.23;;;3.38;;
19434;SDS011;9853;50.848;4.108;2023-05-07T01:26:39;11.15;;;4.30;;
19434;SDS011;9853;50.848;4.108;2023-05-07T01:28:40;13.48;;;3.97;;
19434;SDS011;9853;50.848;4.108;2023-05-07T01:30:45;13.57;;;3.83;;
19434;SDS011;9853;50.848;4.108;2023-05-07T01:32:57;11.10;;;3.50;;
19434;SDS011;9853;50.848;4.108;2023-05-07T01:35:02;11.15;;;3.75;;
19434;SDS011;9853;50.848;4.108;2023-05-07T01:37:06;14.02;;;4.25;;
19434;SDS011;9853;50.848;4.108;2023-05-07T01:39:07;12.85;;;4.20;;
19434;SDS011;9853;50.848;4.108;2023-05-07T01:41:09;14.82;;;4.22;;
19434;SDS011;9853;50.848;4.108;2023-05-07T01:43:12;11.60;;;3.90;;
19434;SDS011;9853;50.848;4.108;2023-05-07T01:45:13;10.88;;;3.47;;
19434;SDS011;9853;50.848;4.108;2023-05-07T01:47:14;11.35;;;4.32;;
19434;SDS011;9853;50.848;4.108;2023-05-07T01:49:16;11.32;;;3.40;;
19434;SDS011;9853;50.848;4.108;2023-05-07T01:51:17;15.55;;;4.13;;
19434;SDS011;9853;50.848;4.108;2023-05-07T01:53:20;16.10;;;4.10;;
19434;SDS011;9853;50.848;4.108;2023-05-07T01:55:20;13.48;;;3.97;;
19434;SDS011;9853;50.848;4.108;2023-05-07T01:57:21;17.13;;;4.40;;
19434;SDS011;9853;50.848;4.108;2023-05-07T01:59:22;12.50;;;3.80;;
19434;SDS011;9853;50.848;4.108;2023-05-07T02:01:23;11.30;;;3.75;;
19434;SDS011;9853;50.848;4.108;2023-05-07T02:03:24;14.05;;;3.70;;
19434;SDS011;9853;50.848;4.108;2023-05-07T02:05:33;13.27;;;3.40;;
19434;SDS011;9853;50.848;4.108;2023-05-07T02:07:56;10.30;;;3.13;;
19434;SDS011;9853;50.848;4.108;2023-05-07T02:09:58;16.20;;;4.03;;
19434;SDS011;9853;50.848;4.108;2023-05-07T02:11:59;13.18;;;3.83;;
19434;SDS011;9853;50.848;4.108;2023-05-07T02:14:00;12.18;;;3.63;;
19434;SDS011;9853;50.848;4.108;2023-05-07T02:16:01;13.43;;;3.78;;
19434;SDS011;9853;50.848;4.108;2023-05-07T02:18:03;12.38;;;3.88;;
19434;SDS011;9853;50.848;4.108;2023-05-07T02:20:06;14.23;;;4.55;;
19434;SDS011;9853;50.848;4.108;2023-05-07T02:22:13;11.32;;;3.85;;
19434;SDS011;9853;50.848;4.108;2023-05-07T02:24:14;11.90;;;3.70;;
19434;SDS011;9853;50.848;4.108;2023-05-07T02:26:15;14.77;;;4.28;;
19434;SDS011;9853;50.848;4.108;2023-05-07T02:28:16;10.57;;;3.30;;
19434;SDS011;9853;50.848;4.108;2023-05-07T02:30:24;13.55;;;4.43;;
19434;SDS011;9853;50.848;4.108;2023-05-07T02:32:27;14.80;;;4.20;;
19434;SDS011;9853;50.848;4.108;2023-05-07T02:34:28;14.13;;;4.20;;
19434;SDS011;9853;50.848;4.108;2023-05-07T02:36:29;15.80;;;4.88;;
19434;SDS011;9853;50.848;4.108;2023-05-07T02:38:43;19.00;;;4.55;;
19434;SDS011;9853;50.848;4.108;2023-05-07T02:40:44;13.50;;;4.78;;
19434;SDS011;9853;50.848;4.108;2023-05-07T02:42:45;18.05;;;5.40;;
19434;SDS011;9853;50.848;4.108;2023-05-07T02:44:46;14.05;;;4.97;;
19434;SDS011;9853;50.848;4.108;2023-05-07T02:46:47;13.70;;;4.80;;
19434;SDS011;9853;50.848;4.108;2023-05-07T02:48:48;12.52;;;5.07;;
19434;SDS011;9853;50.848;4.108;2023-05-07T02:50:49;15.60;;;5.32;;
19434;SDS011;9853;50.848;4.108;2023-05-07T02:52:50;17.58;;;4.88;;
19434;SDS011;9853;50.848;4.108;2023-05-07T02:54:50;14.40;;;4.95;;
19434;SDS011;9853;50.848;4.108;2023-05-07T02:56:51;14.52;;;5.50;;
19434;SDS011;9853;50.848;4.108;2023-05-07T02:58:52;13.88;;;4.70;;
19434;SDS011;9853;50.848;4.108;2023-05-07T03:00:55;18.60;;;4.97;;
19434;SDS011;9853;50.848;4.108;2023-05-07T03:03:15;15.85;;;5.10;;
19434;SDS011;9853;50.848;4.108;2023-05-07T03:05:17;18.70;;;4.85;;
19434;SDS011;9853;50.848;4.108;2023-05-07T03:07:17;13.70;;;4.28;;
19434;SDS011;9853;50.848;4.108;2023-05-07T03:09:18;15.23;;;4.60;;
19434;SDS011;9853;50.848;4.108;2023-05-07T03:11:19;15.38;;;4.57;;
19434;SDS011;9853;50.848;4.108;2023-05-07T03:13:20;14.52;;;4.50;;
19434;SDS011;9853;50.848;4.108;2023-05-07T03:15:22;13.48;;;4.38;;
19434;SDS011;9853;50.848;4.108;2023-05-07T03:17:22;13.85;;;4.68;;
19434;SDS011;9853;50.848;4.108;2023-05-07T03:19:23;11.55;;;4.53;;
19434;SDS011;9853;50.848;4.108;2023-05-07T03:21:24;20.38;;;5.03;;
19434;SDS011;9853;50.848;4.108;2023-05-07T03:23:26;12.98;;;4.03;;
19434;SDS011;9853;50.848;4.108;2023-05-07T03:25:27;15.45;;;4.20;;
19434;SDS011;9853;50.848;4.108;2023-05-07T03:27:28;13.80;;;4.57;;
19434;SDS011;9853;50.848;4.108;2023-05-07T03:29:29;18.13;;;4.85;;
19434;SDS011;9853;50.848;4.108;2023-05-07T03:31:30;16.77;;;4.78;;
19434;SDS011;9853;50.848;4.108;2023-05-07T03:33:32;18.50;;;4.70;;
19434;SDS011;9853;50.848;4.108;2023-05-07T03:35:34;12.07;;;4.07;;
19434;SDS011;9853;50.848;4.108;2023-05-07T03:37:35;10.27;;;3.80;;
19434;SDS011;9853;50.848;4.108;2023-05-07T03:39:36;13.88;;;4.60;;
19434;SDS011;9853;50.848;4.108;2023-05-07T03:41:37;10.95;;;4.20;;
19434;SDS011;9853;50.848;4.108;2023-05-07T03:43:38;14.23;;;4.60;;
19434;SDS011;9853;50.848;4.108;2023-05-07T03:45:43;9.75;;;4.32;;
19434;SDS011;9853;50.848;4.108;2023-05-07T03:47:48;12.98;;;4.05;;
19434;SDS011;9853;50.848;4.108;2023-05-07T03:49:52;18.25;;;5.10;;
19434;SDS011;9853;50.848;4.108;2023-05-07T03:51:55;12.32;;;4.40;;
19434;SDS011;9853;50.848;4.108;2023-05-07T03:53:56;15.35;;;4.20;;
19434;SDS011;9853;50.848;4.108;2023-05-07T03:55:57;13.98;;;4.45;;
19434;SDS011;9853;50.848;4.108;2023-05-07T03:57:58;14.15;;;4.85;;
19434;SDS011;9853;50.848;4.108;2023-05-07T04:00:01;13.13;;;4.57;;
19434;SDS011;9853;50.848;4.108;2023-05-07T04:02:09;16.77;;;4.38;;
19434;SDS011;9853;50.848;4.108;2023-05-07T04:04:10;10.07;;;4.05;;
19434;SDS011;9853;50.848;4.108;2023-05-07T04:06:11;16.95;;;4.72;;
19434;SDS011;9853;50.848;4.108;2023-05-07T04:08:13;13.65;;;5.20;;
19434;SDS011;9853;50.848;4.108;2023-05-07T04:10:18;12.35;;;5.07;;
19434;SDS011;9853;50.848;4.108;2023-05-07T04:12:21;13.75;;;5.65;;
19434;SDS011;9853;50.848;4.108;2023-05-07T04:14:22;16.58;;;5.05;;
19434;SDS011;9853;50.848;4.108;2023-05-07T04:16:23;18.15;;;5.10;;
19434;SDS011;9853;50.848;4.108;2023-05-07T04:18:24;16.15;;;4.60;;
19434;SDS011;9853;50.848;4.108;2023-05-07T04:20:25;14.18;;;4.55;;
19434;SDS011;9853;50.848;4.108;2023-05-07T04:22:33;13.93;;;4.85;;
19434;SDS011;9853;50.848;4.108;2023-05-07T04:24:35;11.35;;;4.55;;
19434;SDS011;9853;50.848;4.108;2023-05-07T04:26:38;13.35;;;4.72;;
19434;SDS011;9853;50.848;4.108;2023-05-07T04:28:39;10.02;;;4.25;;
19434;SDS011;9853;50.848;4.108;2023-05-07T04:30:40;18.90;;;4.75;;
19434;SDS011;9853;50.848;4.108;2023-05-07T04:32:42;13.93;;;4.30;;
19434;SDS011;9853;50.848;4.108;2023-05-07T04:34:44;10.32;;;3.88;;
19434;SDS011;9853;50.848;4.108;2023-05-07T04:36:46;12.52;;;4.32;;
19434;SDS011;9853;50.848;4.108;2023-05-07T04:38:48;11.48;;;3.97;;
19434;SDS011;9853;50.848;4.108;2023-05-07T04:40:51;12.48;;;4.22;;
19434;SDS011;9853;50.848;4.108;2023-05-07T04:43:03;13.35;;;4.40;;
19434;SDS011;9853;50.848;4.108;2023-05-07T04:45:07;10.77;;;4.20;;
19434;SDS011;9853;50.848;4.108;2023-05-07T04:47:09;12.68;;;3.97;;
19434;SDS011;9853;50.848;4.108;2023-05-07T04:49:10;15.32;;;4.50;;
19434;SDS011;9853;50.848;4.108;2023-05-07T04:51:11;11.70;;;3.90;;
19434;SDS011;9853;50.848;4.108;2023-05-07T04:53:12;13.73;;;3.78;;
19434;SDS011;9853;50.848;4.108;2023-05-07T04:55:13;20.65;;;3.83;;
19434;SDS011;9853;50.848;4.108;2023-05-07T04:57:15;16.35;;;3.70;;
19434;SDS011;9853;50.848;4.108;2023-05-07T04:59:17;7.03;;;3.38;;
19434;SDS011;9853;50.848;4.108;2023-05-07T05:01:18;13.48;;;3.92;;
19434;SDS011;9853;50.848;4.108;2023-05-07T05:03:19;14.63;;;3.38;;
19434;SDS011;9853;50.848;4.108;2023-05-07T05:05:20;15.77;;;3.70;;
19434;SDS011;9853;50.848;4.108;2023-05-07T05:07:24;13.05;;;3.60;;
19434;SDS011;9853;50.848;4.108;2023-05-07T05:09:25;9.63;;;3.15;;
19434;SDS011;9853;50.848;4.108;2023-05-07T05:11:26;10.77;;;3.42;;
19434;SDS011;9853;50.848;4.108;2023-05-07T05:13:27;11.55;;;3.65;;
19434;SDS011;9853;50.848;4.108;2023-05-07T05:15:28;11.27;;;3.33;;
19434;SDS011;9853;50.848;4.108;2023-05-07T05:17:30;10.32;;;3.53;;
19434;SDS011;9853;50.848;4.108;2023-05-07T05:19:32;17.40;;;3.63;;
19434;SDS011;9853;50.848;4.108;2023-05-07T05:21:33;11.48;;;4.32;;
19434;SDS011;9853;50.848;4.108;2023-05-07T05:23:39;13.18;;;3.92;;
19434;SDS011;9853;50.848;4.108;2023-05-07T05:25:40;10.00;;;3.90;;
19434;SDS011;9853;50.848;4.108;2023-05-07T05:27:43;11.55;;;5.82;;
19434;SDS011;9853;50.848;4.108;2023-05-07T05:29:44;12.88;;;5.85;;
19434;SDS011;9853;50.848;4.108;2023-05-07T05:31:45;9.70;;;4.28;;
19434;SDS011;9853;50.848;4.108;2023-05-07T05:33:46;13.10;;;5.32;;
19434;SDS011;9853;50.848;4.108;2023-05-07T05:35:47;11.20;;;5.30;;
19434;SDS011;9853;50.848;4.108;2023-05-07T05:37:49;15.10;;;5.22;;
19434;SDS011;9853;50.848;4.108;2023-05-07T05:39:52;18.55;;;5.18;;
19434;SDS011;9853;50.848;4.108;2023-05-07T05:41:54;14.88;;;5.30;;
19434;SDS011;9853;50.848;4.108;2023-05-07T05:43:55;15.50;;;5.00;;
19434;SDS011;9853;50.848;4.108;2023-05-07T05:45:56;13.75;;;5.40;;
19434;SDS011;9853;50.848;4.108;2023-05-07T05:47:57;14.50;;;6.43;;
19434;SDS011;9853;50.848;4.108;2023-05-07T05:49:58;14.43;;;5.72;;
19434;SDS011;9853;50.848;4.108;2023-05-07T05:51:59;13.20;;;5.97;;
19434;SDS011;9853;50.848;4.108;2023-05-07T05:54:01;15.35;;;6.15;;
19434;SDS011;9853;50.848;4.108;2023-05-07T05:56:03;17.15;;;6.40;;
19434;SDS011;9853;50.848;4.108;2023-05-07T05:58:05;16.02;;;6.13;;
19434;SDS011;9853;50.848;4.108;2023-05-07T06:00:10;20.17;;;6.28;;
19434;SDS011;9853;50.848;4.108;2023-05-07T06:02:18;20.52;;;6.43;;
19434;SDS011;9853;50.848;4.108;2023-05-07T06:04:19;22.27;;;6.35;;
19434;SDS011;9853;50.848;4.108;2023-05-07T06:06:20;16.23;;;5.57;;
19434;SDS011;9853;50.848;4.108;2023-05-07T06:08:21;20.25;;;6.30;;
19434;SDS011;9853;50.848;4.108;2023-05-07T06:10:22;13.38;;;5.30;;
19434;SDS011;9853;50.848;4.108;2023-05-07T06:12:24;15.85;;;5.70;;
19434;SDS011;9853;50.848;4.108;2023-05-07T06:14:25;22.10;;;5.43;;
19434;SDS011;9853;50.848;4.108;2023-05-07T06:16:26;19.13;;;7.97;;
19434;SDS011;9853;50.848;4.108;2023-05-07T06:18:28;21.00;;;9.55;;
19434;SDS011;9853;50.848;4.108;2023-05-07T06:20:28;22.45;;;14.02;;
19434;SDS011;9853;50.848;4.108;2023-05-07T06:22:30;20.55;;;9.43;;
19434;SDS011;9853;50.848;4.108;2023-05-07T06:24:31;21.13;;;10.90;;
19434;SDS011;9853;50.848;4.108;2023-05-07T06:26:32;14.35;;;6.90;;
19434;SDS011;9853;50.848;4.108;2023-05-07T06:28:33;24.23;;;12.40;;
19434;SDS011;9853;50.848;4.108;2023-05-07T06:30:38;13.75;;;6.18;;
19434;SDS011;9853;50.848;4.108;2023-05-07T06:32:40;14.18;;;6.30;;
19434;SDS011;9853;50.848;4.108;2023-05-07T06:34:42;13.70;;;6.22;;
19434;SDS011;9853;50.848;4.108;2023-05-07T06:36:43;38.38;;;26.10;;
19434;SDS011;9853;50.848;4.108;2023-05-07T06:39:00;12.02;;;4.82;;
19434;SDS011;9853;50.848;4.108;2023-05-07T06:41:00;14.15;;;5.65;;
19434;SDS011;9853;50.848;4.108;2023-05-07T06:43:01;16.50;;;5.93;;
19434;SDS011;9853;50.848;4.108;2023-05-07T06:45:10;13.75;;;5.03;;
19434;SDS011;9853;50.848;4.108;2023-05-07T06:47:11;16.35;;;5.78;;
19434;SDS011;9853;50.848;4.108;2023-05-07T06:49:13;16.27;;;4.90;;
19434;SDS011;9853;50.848;4.108;2023-05-07T06:51:14;11.00;;;5.20;;
19434;SDS011;9853;50.848;4.108;2023-05-07T06:53:15;12.57;;;5.03;;
19434;SDS011;9853;50.848;4.108;2023-05-07T06:55:16;12.90;;;5.88;;
19434;SDS011;9853;50.848;4.108;2023-05-07T06:57:17;11.90;;;5.07;;
19434;SDS011;9853;50.848;4.108;2023-05-07T06:59:18;14.75;;;5.32;;
19434;SDS011;9853;50.848;4.108;2023-05-07T07:01:19;12.93;;;5.18;;
19434;SDS011;9853;50.848;4.108;2023-05-07T07:03:20;18.20;;;5.15;;
19434;SDS011;9853;50.848;4.108;2023-05-07T07:05:21;10.73;;;4.13;;
19434;SDS011;9853;50.848;4.108;2023-05-07T07:07:22;11.48;;;4.10;;
19434;SDS011;9853;50.848;4.108;2023-05-07T07:09:26;10.52;;;3.88;;
19434;SDS011;9853;50.848;4.108;2023-05-07T07:11:27;10.88;;;3.17;;
19434;SDS011;9853;50.848;4.108;2023-05-07T07:13:28;10.77;;;4.28;;
19434;SDS011;9853;50.848;4.108;2023-05-07T07:15:29;7.80;;;3.65;;
19434;SDS011;9853;50.848;4.108;2023-05-07T07:17:30;10.65;;;3.40;;
19434;SDS011;9853;50.848;4.108;2023-05-07T07:19:34;10.32;;;3.28;;
19434;SDS011;9853;50.848;4.108;2023-05-07T07:21:39;10.15;;;3.33;;
19434;SDS011;9853;50.848;4.108;2023-05-07T07:23:40;8.60;;;2.75;;
19434;SDS011;9853;50.848;4.108;2023-05-07T07:25:42;9.40;;;3.50;;
19434;SDS011;9853;50.848;4.108;2023-05-07T07:27:43;8.32;;;2.92;;
19434;SDS011;9853;50.848;4.108;2023-05-07T07:29:45;8.80;;;2.83;;
19434;SDS011;9853;50.848;4.108;2023-05-07T07:31:47;7.40;;;2.72;;
19434;SDS011;9853;50.848;4.108;2023-05-07T07:33:50;13.05;;;4.25;;
19434;SDS011;9853;50.848;4.108;2023-05-07T07:35:51;14.27;;;8.60;;
19434;SDS011;9853;50.848;4.108;2023-05-07T07:37:52;9.43;;;3.17;;
19434;SDS011;9853;50.848;4.108;2023-05-07T07:39:53;5.43;;;2.78;;
19434;SDS011;9853;50.848;4.108;2023-05-07T07:41:55;11.73;;;2.55;;
19434;SDS011;9853;50.848;4.108;2023-05-07T07:43:56;7.10;;;3.20;;
19434;SDS011;9853;50.848;4.108;2023-05-07T07:45:57;14.07;;;7.82;;
19434;SDS011;9853;50.848;4.108;2023-05-07T07:47:58;8.02;;;3.60;;
19434;SDS011;9853;50.848;4.108;2023-05-07T07:49:59;7.78;;;2.63;;
19434;SDS011;9853;50.848;4.108;2023-05-07T07:52:00;11.38;;;2.50;;
19434;SDS011;9853;50.848;4.108;2023-05-07T07:54:01;6.68;;;2.58;;
19434;SDS011;9853;50.848;4.108;2023-05-07T07:56:04;8.73;;;2.60;;
19434;SDS011;9853;50.848;4.108;2023-05-07T07:58:07;8.18;;;2.60;;
19434;SDS011;9853;50.848;4.108;2023-05-07T08:00:08;7.05;;;2.50;;
19434;SDS011;9853;50.848;4.108;2023-05-07T08:02:17;22.30;;;2.72;;
19434;SDS011;9853;50.848;4.108;2023-05-07T08:04:18;6.57;;;2.83;;
19434;SDS011;9853;50.848;4.108;2023-05-07T08:06:19;8.30;;;2.78;;
19434;SDS011;9853;50.848;4.108;2023-05-07T08:08:20;8.40;;;2.83;;
19434;SDS011;9853;50.848;4.108;2023-05-07T08:10:22;9.32;;;2.80;;
19434;SDS011;9853;50.848;4.108;2023-05-07T08:12:27;9.68;;;2.97;;
19434;SDS011;9853;50.848;4.108;2023-05-07T08:14:27;5.60;;;2.75;;
19434;SDS011;9853;50.848;4.108;2023-05-07T08:16:28;6.97;;;2.67;;
19434;SDS011;9853;50.848;4.108;2023-05-07T08:18:29;8.18;;;2.92;;
19434;SDS011;9853;50.848;4.108;2023-05-07T08:20:34;12.93;;;2.75;;
19434;SDS011;9853;50.848;4.108;2023-05-07T08:22:39;6.13;;;2.22;;
19434;SDS011;9853;50.848;4.108;2023-05-07T08:24:41;9.60;;;2.60;;
19434;SDS011;9853;50.848;4.108;2023-05-07T08:26:45;8.63;;;2.40;;
19434;SDS011;9853;50.848;4.108;2023-05-07T08:28:46;6.63;;;2.17;;
19434;SDS011;9853;50.848;4.108;2023-05-07T08:30:47;8.55;;;2.42;;
19434;SDS011;9853;50.848;4.108;2023-05-07T08:32:48;8.27;;;2.00;;
19434;SDS011;9853;50.848;4.108;2023-05-07T08:34:49;7.85;;;2.10;;
19434;SDS011;9853;50.848;4.108;2023-05-07T08:36:50;5.32;;;2.38;;
19434;SDS011;9853;50.848;4.108;2023-05-07T08:38:54;8.57;;;2.50;;
19434;SDS011;9853;50.848;4.108;2023-05-07T08:40:55;6.10;;;1.95;;
19434;SDS011;9853;50.848;4.108;2023-05-07T08:42:56;7.70;;;2.35;;
19434;SDS011;9853;50.848;4.108;2023-05-07T08:44:58;8.73;;;2.75;;
19434;SDS011;9853;50.848;4.108;2023-05-07T08:47:03;6.95;;;2.30;;
19434;SDS011;9853;50.848;4.108;2023-05-07T08:49:07;6.55;;;2.20;;
19434;SDS011;9853;50.848;4.108;2023-05-07T08:51:13;5.80;;;2.53;;
19434;SDS011;9853;50.848;4.108;2023-05-07T08:53:16;8.45;;;3.00;;
19434;SDS011;9853;50.848;4.108;2023-05-07T08:55:18;9.73;;;2.70;;
19434;SDS011;9853;50.848;4.108;2023-05-07T08:57:20;9.25;;;2.80;;
19434;SDS011;9853;50.848;4.108;2023-05-07T08:59:22;7.45;;;2.45;;
19434;SDS011;9853;50.848;4.108;2023-05-07T09:01:23;8.60;;;2.90;;
19434;SDS011;9853;50.848;4.108;2023-05-07T09:03:26;6.88;;;2.65;;
19434;SDS011;9853;50.848;4.108;2023-05-07T09:05:29;8.70;;;2.88;;
19434;SDS011;9853;50.848;4.108;2023-05-07T09:07:30;8.13;;;2.70;;
19434;SDS011;9853;50.848;4.108;2023-05-07T09:09:32;8.13;;;3.00;;
19434;SDS011;9853;50.848;4.108;2023-05-07T09:11:34;6.90;;;2.72;;
19434;SDS011;9853;50.848;4.108;2023-05-07T09:13:35;8.00;;;2.78;;
19434;SDS011;9853;50.848;4.108;2023-05-07T09:15:37;7.32;;;2.85;;
19434;SDS011;9853;50.848;4.108;2023-05-07T09:17:38;8.45;;;3.30;;
19434;SDS011;9853;50.848;4.108;2023-05-07T09:19:42;6.07;;;2.55;;
19434;SDS011;9853;50.848;4.108;2023-05-07T09:21:49;10.38;;;2.83;;
19434;SDS011;9853;50.848;4.108;2023-05-07T09:23:50;7.43;;;2.53;;
19434;SDS011;9853;50.848;4.108;2023-05-07T09:25:54;7.45;;;2.88;;
19434;SDS011;9853;50.848;4.108;2023-05-07T09:28:03;7.03;;;2.42;;
19434;SDS011;9853;50.848;4.108;2023-05-07T09:30:07;24.27;;;20.70;;
19434;SDS011;9853;50.848;4.108;2023-05-07T09:32:09;6.43;;;2.65;;
19434;SDS011;9853;50.848;4.108;2023-05-07T09:34:10;8.23;;;3.15;;
19434;SDS011;9853;50.848;4.108;2023-05-07T09:36:14;6.90;;;2.30;;
19434;SDS011;9853;50.848;4.108;2023-05-07T09:38:16;7.15;;;2.78;;
19434;SDS011;9853;50.848;4.108;2023-05-07T09:40:22;7.60;;;2.53;;
19434;SDS011;9853;50.848;4.108;2023-05-07T09:42:26;6.82;;;2.97;;
19434;SDS011;9853;50.848;4.108;2023-05-07T09:44:31;7.93;;;2.88;;
19434;SDS011;9853;50.848;4.108;2023-05-07T09:46:33;8.40;;;2.60;;
19434;SDS011;9853;50.848;4.108;2023-05-07T09:48:41;8.07;;;3.05;;
19434;SDS011;9853;50.848;4.108;2023-05-07T09:50:47;5.40;;;3.15;;
19434;SDS011;9853;50.848;4.108;2023-05-07T09:52:51;5.72;;;3.33;;
19434;SDS011;9853;50.848;4.108;2023-05-07T09:54:53;7.75;;;3.13;;
19434;SDS011;9853;50.848;4.108;2023-05-07T09:56:58;7.18;;;3.38;;
19434;SDS011;9853;50.848;4.108;2023-05-07T09:59:01;6.18;;;3.28;;
19434;SDS011;9853;50.848;4.108;2023-05-07T10:01:06;6.30;;;3.03;;
19434;SDS011;9853;50.848;4.108;2023-05-07T10:03:07;6.57;;;3.08;;
19434;SDS011;9853;50.848;4.108;2023-05-07T10:05:20;7.60;;;2.67;;
19434;SDS011;9853;50.848;4.108;2023-05-07T10:07:23;8.60;;;3.70;;
19434;SDS011;9853;50.848;4.108;2023-05-07T10:09:29;6.63;;;3.13;;
19434;SDS011;9853;50.848;4.108;2023-05-07T10:11:34;14.00;;;3.67;;
19434;SDS011;9853;50.848;4.108;2023-05-07T10:13:36;4.75;;;2.97;;
19434;SDS011;9853;50.848;4.108;2023-05-07T10:15:40;11.68;;;3.25;;
19434;SDS011;9853;50.848;4.108;2023-05-07T10:17:41;5.88;;;2.83;;
19434;SDS011;9853;50.848;4.108;2023-05-07T10:19:44;7.82;;;3.20;;
19434;SDS011;9853;50.848;4.108;2023-05-07T10:21:51;6.10;;;3.28;;
19434;SDS011;9853;50.848;4.108;2023-05-07T10:24:03;5.63;;;3.05;;
19434;SDS011;9853;50.848;4.108;2023-05-07T10:26:13;6.90;;;3.30;;
19434;SDS011;9853;50.848;4.108;2023-05-07T10:28:16;6.35;;;3.50;;
19434;SDS011;9853;50.848;4.108;2023-05-07T10:32:46;6.50;;;3.17;;
19434;SDS011;9853;50.848;4.108;2023-05-07T10:34:58;5.72;;;3.05;;
19434;SDS011;9853;50.848;4.108;2023-05-07T10:37:02;6.22;;;3.13;;
19434;SDS011;9853;50.848;4.108;2023-05-07T10:39:05;7.07;;;2.92;;
19434;SDS011;9853;50.848;4.108;2023-05-07T10:41:11;7.68;;;3.38;;
19434;SDS011;9853;50.848;4.108;2023-05-07T10:43:19;6.75;;;2.88;;
19434;SDS011;9853;50.848;4.108;2023-05-07T10:45:42;6.78;;;3.13;;
19434;SDS011;9853;50.848;4.108;2023-05-07T10:50:24;4.63;;;2.88;;
19434;SDS011;9853;50.848;4.108;2023-05-07T10:52:35;6.50;;;2.78;;
19434;SDS011;9853;50.848;4.108;2023-05-07T10:54:43;5.32;;;2.70;;
19434;SDS011;9853;50.848;4.108;2023-05-07T10:56:48;3.28;;;2.40;;
19434;SDS011;9853;50.848;4.108;2023-05-07T10:58:55;5.88;;;2.65;;
19434;SDS011;9853;50.848;4.108;2023-05-07T11:01:06;5.75;;;2.05;;
19434;SDS011;9853;50.848;4.108;2023-05-07T11:03:15;5.90;;;2.67;;
19434;SDS011;9853;50.848;4.108;2023-05-07T11:05:23;4.55;;;1.75;;
19434;SDS011;9853;50.848;4.108;2023-05-07T11:07:38;2.35;;;1.25;;
19434;SDS011;9853;50.848;4.108;2023-05-07T11:12:06;2.63;;;1.10;;
19434;SDS011;9853;50.848;4.108;2023-05-07T11:17:02;2.70;;;1.30;;
19434;SDS011;9853;50.848;4.108;2023-05-07T11:19:05;3.85;;;1.20;;
19434;SDS011;9853;50.848;4.108;2023-05-07T11:21:12;3.50;;;1.30;;
19434;SDS011;9853;50.848;4.108;2023-05-07T11:25:44;2.75;;;1.10;;
19434;SDS011;9853;50.848;4.108;2023-05-07T11:27:51;1.65;;;0.90;;
19434;SDS011;9853;50.848;4.108;2023-05-07T11:29:53;3.42;;;1.10;;
19434;SDS011;9853;50.848;4.108;2023-05-07T11:31:57;2.60;;;1.00;;
19434;SDS011;9853;50.848;4.108;2023-05-07T11:34:08;2.08;;;0.98;;
19434;SDS011;9853;50.848;4.108;2023-05-07T11:36:10;2.88;;;0.90;;
19434;SDS011;9853;50.848;4.108;2023-05-07T11:38:34;1.90;;;0.82;;
19434;SDS011;9853;50.848;4.108;2023-05-07T11:40:59;2.20;;;0.95;;
19434;SDS011;9853;50.848;4.108;2023-05-07T11:43:09;1.90;;;0.80;;
19434;SDS011;9853;50.848;4.108;2023-05-07T11:45:23;2.67;;;1.05;;
19434;SDS011;9853;50.848;4.108;2023-05-07T11:47:25;3.38;;;1.10;;
19434;SDS011;9853;50.848;4.108;2023-05-07T11:49:29;2.10;;;1.05;;
19434;SDS011;9853;50.848;4.108;2023-05-07T11:51:30;3.33;;;1.05;;
19434;SDS011;9853;50.848;4.108;2023-05-07T11:53:46;4.93;;;1.90;;
19434;SDS011;9853;50.848;4.108;2023-05-07T11:55:47;4.63;;;1.80;;
19434;SDS011;9853;50.848;4.108;2023-05-07T11:57:55;6.88;;;2.20;;
19434;SDS011;9853;50.848;4.108;2023-05-07T11:59:56;3.45;;;2.00;;
19434;SDS011;9853;50.848;4.108;2023-05-07T12:01:58;4.13;;;1.95;;
19434;SDS011;9853;50.848;4.108;2023-05-07T12:04:02;5.35;;;2.30;;
19434;SDS011;9853;50.848;4.108;2023-05-07T12:06:06;4.82;;;2.20;;
19434;SDS011;9853;50.848;4.108;2023-05-07T12:08:10;6.40;;;2.42;;
19434;SDS011;9853;50.848;4.108;2023-05-07T12:10:22;4.53;;;2.90;;
19434;SDS011;9853;50.848;4.108;2023-05-07T12:12:25;6.57;;;3.67;;
19434;SDS011;9853;50.848;4.108;2023-05-07T12:14:28;4.93;;;3.45;;
19434;SDS011;9853;50.848;4.108;2023-05-07T12:16:31;5.38;;;3.80;;
19434;SDS011;9853;50.848;4.108;2023-05-07T12:18:32;4.60;;;3.63;;
19434;SDS011;9853;50.848;4.108;2023-05-07T12:20:42;5.50;;;3.35;;
19434;SDS011;9853;50.848;4.108;2023-05-07T12:22:44;5.65;;;3.28;;
19434;SDS011;9853;50.848;4.108;2023-05-07T12:24:58;4.72;;;3.00;;
19434;SDS011;9853;50.848;4.108;2023-05-07T12:27:07;6.30;;;3.30;;
19434;SDS011;9853;50.848;4.108;2023-05-07T12:29:09;5.68;;;3.45;;
19434;SDS011;9853;50.848;4.108;2023-05-07T12:31:10;5.35;;;3.50;;
19434;SDS011;9853;50.848;4.108;2023-05-07T12:33:24;5.25;;;3.40;;
19434;SDS011;9853;50.848;4.108;2023-05-07T12:35:29;6.10;;;3.30;;
19434;SDS011;9853;50.848;4.108;2023-05-07T12:37:32;5.72;;;3.88;;
19434;SDS011;9853;50.848;4.108;2023-05-07T12:39:33;5.22;;;3.83;;